sensor_id;sensor_type;location;lat;lon;timestamp;pressure;altitude;pressure_sealevel;temperature
34310;BMP280;61664;48.112;11.662;2022-08-01T00:00:16;95530.47;;;25.12
34310;BMP280;61664;48.112;11.662;2022-08-01T00:02:43;95530.47;;;25.12
34310;BMP280;61664;48.112;11.662;2022-08-01T00:05:10;95524.31;;;25.04
34310;BMP280;61664;48.112;11.662;2022-08-01T00:07:38;95532.88;;;25.08
34310;BMP280;61664;48.112;11.662;2022-08-01T00:10:10;95546.53;;;25.08
34310;BMP280;61664;48.112;11.662;2022-08-01T00:12:37;95522.16;;;25.03
34310;BMP280;61664;48.112;11.662;2022-08-01T00:15:14;95533.06;;;25.10
34310;BMP280;61664;48.112;11.662;2022-08-01T00:17:42;95534.50;;;25.11
34310;BMP280;61664;48.112;11.662;2022-08-01T00:20:13;95532.66;;;25.14
34310;BMP280;61664;48.112;11.662;2022-08-01T00:22:40;95534.66;;;25.13
34310;BMP280;61664;48.112;11.662;2022-08-01T00:25:07;95539.97;;;25.11
34310;BMP280;61664;48.112;11.662;2022-08-01T00:27:34;95544.72;;;25.11
34310;BMP280;61664;48.112;11.662;2022-08-01T00:30:04;95544.00;;;25.10
34310;BMP280;61664;48.112;11.662;2022-08-01T00:32:43;95539.63;;;25.07
34310;BMP280;61664;48.112;11.662;2022-08-01T00:35:10;95539.63;;;25.07
34310;BMP280;61664;48.112;11.662;2022-08-01T00:37:37;95549.28;;;25.08
34310;BMP280;61664;48.112;11.662;2022-08-01T00:40:06;95552.00;;;25.08
34310;BMP280;61664;48.112;11.662;2022-08-01T00:42:33;95553.47;;;25.09
34310;BMP280;61664;48.112;11.662;2022-08-01T00:45:00;95546.19;;;25.04
34310;BMP280;61664;48.112;11.662;2022-08-01T00:47:27;95554.38;;;25.04
34310;BMP280;61664;48.112;11.662;2022-08-01T00:49:54;95542.97;;;24.98
34310;BMP280;61664;48.112;11.662;2022-08-01T00:52:21;95545.69;;;24.98
34310;BMP280;61664;48.112;11.662;2022-08-01T00:57:15;95546.31;;;24.89
34310;BMP280;61664;48.112;11.662;2022-08-01T01:00:05;95542.31;;;24.83
34310;BMP280;61664;48.112;11.662;2022-08-01T01:02:33;95540.72;;;24.80
34310;BMP280;61664;48.112;11.662;2022-08-01T01:05:00;95546.72;;;24.78
34310;BMP280;61664;48.112;11.662;2022-08-01T01:08:02;95548.94;;;24.72
34310;BMP280;61664;48.112;11.662;2022-08-01T01:13:25;95556.59;;;24.66
34310;BMP280;61664;48.112;11.662;2022-08-01T01:16:02;95538.28;;;24.51
34310;BMP280;61664;48.112;11.662;2022-08-01T01:18:44;95548.25;;;24.56
34310;BMP280;61664;48.112;11.662;2022-08-01T01:24:20;95541.03;;;24.44
34310;BMP280;61664;48.112;11.662;2022-08-01T01:29:57;95545.97;;;24.38
34310;BMP280;61664;48.112;11.662;2022-08-01T01:32:39;95557.22;;;24.42
34310;BMP280;61664;48.112;11.662;2022-08-01T01:35:16;95542.16;;;24.33
34310;BMP280;61664;48.112;11.662;2022-08-01T01:37:47;95557.97;;;24.35
34310;BMP280;61664;48.112;11.662;2022-08-01T01:40:17;95557.97;;;24.35
34310;BMP280;61664;48.112;11.662;2022-08-01T01:42:46;95558.94;;;24.29
34310;BMP280;61664;48.112;11.662;2022-08-01T01:45:14;95548.19;;;24.24
34310;BMP280;61664;48.112;11.662;2022-08-01T01:47:43;95562.94;;;24.28
34310;BMP280;61664;48.112;11.662;2022-08-01T01:50:12;95558.06;;;24.19
34310;BMP280;61664;48.112;11.662;2022-08-01T01:52:42;95563.66;;;24.21
34310;BMP280;61664;48.112;11.662;2022-08-01T01:55:13;95555.09;;;24.17
34310;BMP280;61664;48.112;11.662;2022-08-01T01:57:43;95568.41;;;24.21
34310;BMP280;61664;48.112;11.662;2022-08-01T02:00:13;95561.50;;;24.20
34310;BMP280;61664;48.112;11.662;2022-08-01T02:02:41;95565.84;;;24.23
34310;BMP280;61664;48.112;11.662;2022-08-01T02:05:12;95557.09;;;24.24
34310;BMP280;61664;48.112;11.662;2022-08-01T02:07:41;95556.38;;;24.24
34310;BMP280;61664;48.112;11.662;2022-08-01T02:10:11;95566.91;;;24.27
34310;BMP280;61664;48.112;11.662;2022-08-01T02:12:43;95566.91;;;24.27
34310;BMP280;61664;48.112;11.662;2022-08-01T02:15:15;95561.44;;;24.27
34310;BMP280;61664;48.112;11.662;2022-08-01T02:17:47;95573.09;;;24.28
34310;BMP280;61664;48.112;11.662;2022-08-01T02:20:16;95560.56;;;24.25
34310;BMP280;61664;48.112;11.662;2022-08-01T02:23:06;95567.13;;;24.22
34310;BMP280;61664;48.112;11.662;2022-08-01T02:25:44;95567.69;;;24.20
34310;BMP280;61664;48.112;11.662;2022-08-01T02:28:40;95568.59;;;24.15
34310;BMP280;61664;48.112;11.662;2022-08-01T02:31:13;95574.06;;;24.15
34310;BMP280;61664;48.112;11.662;2022-08-01T02:33:46;95575.31;;;24.14
34310;BMP280;61664;48.112;11.662;2022-08-01T02:36:18;95561.31;;;24.03
34310;BMP280;61664;48.112;11.662;2022-08-01T02:39:02;95570.97;;;24.04
34310;BMP280;61664;48.112;11.662;2022-08-01T02:41:33;95580.06;;;24.06
34310;BMP280;61664;48.112;11.662;2022-08-01T02:44:07;95569.53;;;23.95
34310;BMP280;61664;48.112;11.662;2022-08-01T02:46:52;95576.81;;;24.00
34310;BMP280;61664;48.112;11.662;2022-08-01T02:49:22;95570.97;;;23.96
34310;BMP280;61664;48.112;11.662;2022-08-01T02:51:52;95577.53;;;23.93
34310;BMP280;61664;48.112;11.662;2022-08-01T02:54:22;95573.72;;;23.88
34310;BMP280;61664;48.112;11.662;2022-08-01T02:56:51;95577.00;;;23.87
34310;BMP280;61664;48.112;11.662;2022-08-01T02:59:22;95575.91;;;23.90
34310;BMP280;61664;48.112;11.662;2022-08-01T03:01:55;95581.19;;;23.88
34310;BMP280;61664;48.112;11.662;2022-08-01T03:04:24;95581.91;;;23.88
34310;BMP280;61664;48.112;11.662;2022-08-01T03:06:55;95585.91;;;23.87
34310;BMP280;61664;48.112;11.662;2022-08-01T03:09:28;95577.38;;;23.83
34310;BMP280;61664;48.112;11.662;2022-08-01T03:12:03;95578.28;;;23.78
34310;BMP280;61664;48.112;11.662;2022-08-01T03:14:35;95574.81;;;23.70
34310;BMP280;61664;48.112;11.662;2022-08-01T03:17:05;95578.28;;;23.71
34310;BMP280;61664;48.112;11.662;2022-08-01T03:19:33;95587.19;;;23.71
34310;BMP280;61664;48.112;11.662;2022-08-01T03:22:02;95590.47;;;23.70
34310;BMP280;61664;48.112;11.662;2022-08-01T03:24:34;95588.63;;;23.65
34310;BMP280;61664;48.112;11.662;2022-08-01T03:27:03;95589.91;;;23.64
34310;BMP280;61664;48.112;11.662;2022-08-01T03:29:32;95595.34;;;23.64
34310;BMP280;61664;48.112;11.662;2022-08-01T03:32:01;95591.38;;;23.65
34310;BMP280;61664;48.112;11.662;2022-08-01T03:34:30;95588.09;;;23.66
34310;BMP280;61664;48.112;11.662;2022-08-01T03:37:11;95581.56;;;23.62
34310;BMP280;61664;48.112;11.662;2022-08-01T03:39:52;95593.56;;;23.66
34310;BMP280;61664;48.112;11.662;2022-08-01T03:42:27;95598.28;;;23.66
34310;BMP280;61664;48.112;11.662;2022-08-01T03:45:08;95583.72;;;23.56
34310;BMP280;61664;48.112;11.662;2022-08-01T03:47:43;95592.47;;;23.62
34310;BMP280;61664;48.112;11.662;2022-08-01T03:50:13;95605.53;;;23.63
34310;BMP280;61664;48.112;11.662;2022-08-01T03:52:43;95596.06;;;23.57
34310;BMP280;61664;48.112;11.662;2022-08-01T03:55:12;95607.72;;;23.57
34310;BMP280;61664;48.112;11.662;2022-08-01T03:57:42;95615.16;;;23.57
34310;BMP280;61664;48.112;11.662;2022-08-01T04:00:10;95620.44;;;23.55
34310;BMP280;61664;48.112;11.662;2022-08-01T04:02:38;95619.00;;;23.54
34310;BMP280;61664;48.112;11.662;2022-08-01T04:05:06;95601.72;;;23.43
34310;BMP280;61664;48.112;11.662;2022-08-01T04:07:34;95612.66;;;23.51
34310;BMP280;61664;48.112;11.662;2022-08-01T04:10:06;95623.00;;;23.53
34310;BMP280;61664;48.112;11.662;2022-08-01T04:12:34;95611.00;;;23.48
34310;BMP280;61664;48.112;11.662;2022-08-01T04:15:03;95624.09;;;23.50
34310;BMP280;61664;48.112;11.662;2022-08-01T04:17:31;95628.28;;;23.51
34310;BMP280;61664;48.112;11.662;2022-08-01T04:19:58;95618.97;;;23.46
34310;BMP280;61664;48.112;11.662;2022-08-01T04:22:28;95625.16;;;23.46
34310;BMP280;61664;48.112;11.662;2022-08-01T04:24:58;95620.81;;;23.43
34310;BMP280;61664;48.112;11.662;2022-08-01T04:27:31;95627.88;;;23.46
34310;BMP280;61664;48.112;11.662;2022-08-01T04:30:22;95639.31;;;23.45
34310;BMP280;61664;48.112;11.662;2022-08-01T04:32:54;95642.97;;;23.47
34310;BMP280;61664;48.112;11.662;2022-08-01T04:35:23;95646.97;;;23.46
34310;BMP280;61664;48.112;11.662;2022-08-01T04:38:21;95648.63;;;23.50
34310;BMP280;61664;48.112;11.662;2022-08-01T04:40:51;95637.53;;;23.47
34310;BMP280;61664;48.112;11.662;2022-08-01T04:43:19;95636.44;;;23.51
34310;BMP280;61664;48.112;11.662;2022-08-01T04:45:47;95642.44;;;23.57
34310;BMP280;61664;48.112;11.662;2022-08-01T04:48:18;95644.63;;;23.58
34310;BMP280;61664;48.112;11.662;2022-08-01T04:50:49;95654.81;;;23.58
34310;BMP280;61664;48.112;11.662;2022-08-01T04:53:19;95650.63;;;23.57
34310;BMP280;61664;48.112;11.662;2022-08-01T04:55:48;95651.34;;;23.57
34310;BMP280;61664;48.112;11.662;2022-08-01T04:58:16;95645.16;;;23.57
34310;BMP280;61664;48.112;11.662;2022-08-01T05:00:47;95643.38;;;23.52
34310;BMP280;61664;48.112;11.662;2022-08-01T05:03:14;95650.84;;;23.59
34310;BMP280;61664;48.112;11.662;2022-08-01T05:05:41;95645.03;;;23.62
34310;BMP280;61664;48.112;11.662;2022-08-01T05:08:08;95657.22;;;23.69
34310;BMP280;61664;48.112;11.662;2022-08-01T05:10:35;95661.19;;;23.75
34310;BMP280;61664;48.112;11.662;2022-08-01T05:13:02;95651.19;;;23.78
34310;BMP280;61664;48.112;11.662;2022-08-01T05:15:29;95651.41;;;23.80
34310;BMP280;61664;48.112;11.662;2022-08-01T05:17:57;95662.84;;;23.86
34310;BMP280;61664;48.112;11.662;2022-08-01T05:20:24;95654.84;;;23.88
34310;BMP280;61664;48.112;11.662;2022-08-01T05:22:51;95660.50;;;23.98
34310;BMP280;61664;48.112;11.662;2022-08-01T05:25:18;95674.31;;;24.07
34310;BMP280;61664;48.112;11.662;2022-08-01T05:28:05;95673.59;;;24.14
34310;BMP280;61664;48.112;11.662;2022-08-01T05:30:32;95662.66;;;24.14
34310;BMP280;61664;48.112;11.662;2022-08-01T05:32:59;95673.59;;;24.29
34310;BMP280;61664;48.112;11.662;2022-08-01T05:35:26;95686.69;;;24.39
34310;BMP280;61664;48.112;11.662;2022-08-01T05:38:13;95669.56;;;24.46
34310;BMP280;61664;48.112;11.662;2022-08-01T05:40:40;95666.09;;;24.45
34310;BMP280;61664;48.112;11.662;2022-08-01T05:43:07;95676.28;;;24.52
34310;BMP280;61664;48.112;11.662;2022-08-01T05:45:34;95687.19;;;24.60
34310;BMP280;61664;48.112;11.662;2022-08-01T05:48:01;95666.09;;;24.53
34310;BMP280;61664;48.112;11.662;2022-08-01T05:50:28;95676.28;;;24.60
34310;BMP280;61664;48.112;11.662;2022-08-01T05:52:55;95692.28;;;24.71
34310;BMP280;61664;48.112;11.662;2022-08-01T05:55:22;95680.06;;;24.72
34310;BMP280;61664;48.112;11.662;2022-08-01T05:57:49;95678.97;;;24.75
34310;BMP280;61664;48.112;11.662;2022-08-01T06:00:16;95677.13;;;24.78
34310;BMP280;61664;48.112;11.662;2022-08-01T06:02:43;95687.50;;;24.87
34310;BMP280;61664;48.112;11.662;2022-08-01T06:05:10;95692.59;;;24.90
34310;BMP280;61664;48.112;11.662;2022-08-01T06:07:40;95687.16;;;24.90
34310;BMP280;61664;48.112;11.662;2022-08-01T06:10:08;95679.66;;;24.91
34310;BMP280;61664;48.112;11.662;2022-08-01T06:12:35;95696.75;;;24.99
34310;BMP280;61664;48.112;11.662;2022-08-01T06:15:06;95688.75;;;24.93
34310;BMP280;61664;48.112;11.662;2022-08-01T06:17:33;95692.38;;;25.03
34310;BMP280;61664;48.112;11.662;2022-08-01T06:20:00;95701.25;;;25.11
34310;BMP280;61664;48.112;11.662;2022-08-01T06:22:27;95693.03;;;25.19
34310;BMP280;61664;48.112;11.662;2022-08-01T06:24:56;95697.00;;;25.26
34310;BMP280;61664;48.112;11.662;2022-08-01T06:27:23;95704.63;;;25.35
34310;BMP280;61664;48.112;11.662;2022-08-01T06:29:52;95704.97;;;25.39
34310;BMP280;61664;48.112;11.662;2022-08-01T06:32:23;95694.22;;;25.41
34310;BMP280;61664;48.112;11.662;2022-08-01T06:34:54;95693.94;;;25.54
34310;BMP280;61664;48.112;11.662;2022-08-01T06:37:23;95702.66;;;25.60
34310;BMP280;61664;48.112;11.662;2022-08-01T06:39:50;95705.56;;;25.62
34310;BMP280;61664;48.112;11.662;2022-08-01T06:42:17;95698.47;;;25.59
34310;BMP280;61664;48.112;11.662;2022-08-01T06:44:45;95697.16;;;25.68
34310;BMP280;61664;48.112;11.662;2022-08-01T06:47:12;95702.56;;;25.75
34310;BMP280;61664;48.112;11.662;2022-08-01T06:49:39;95690.69;;;25.80
34310;BMP280;61664;48.112;11.662;2022-08-01T06:52:06;95702.50;;;25.83
34310;BMP280;61664;48.112;11.662;2022-08-01T06:54:33;95707.78;;;25.88
34310;BMP280;61664;48.112;11.662;2022-08-01T06:57:00;95702.63;;;25.92
34310;BMP280;61664;48.112;11.662;2022-08-01T06:59:28;95704.22;;;25.95
34310;BMP280;61664;48.112;11.662;2022-08-01T07:01:55;95703.84;;;25.99
34310;BMP280;61664;48.112;11.662;2022-08-01T07:04:22;95693.28;;;25.95
34310;BMP280;61664;48.112;11.662;2022-08-01T07:06:49;95697.56;;;26.06
34310;BMP280;61664;48.112;11.662;2022-08-01T07:09:16;95686.63;;;26.06
34310;BMP280;61664;48.112;11.662;2022-08-01T07:11:43;95697.13;;;26.17
34310;BMP280;61664;48.112;11.662;2022-08-01T07:14:10;95696.34;;;26.24
34310;BMP280;61664;48.112;11.662;2022-08-01T07:16:37;95691.38;;;26.30
34310;BMP280;61664;48.112;11.662;2022-08-01T07:19:04;95689.69;;;26.35
34310;BMP280;61664;48.112;11.662;2022-08-01T07:21:31;95688.16;;;26.41
34310;BMP280;61664;48.112;11.662;2022-08-01T07:24:09;95694.59;;;26.54
34310;BMP280;61664;48.112;11.662;2022-08-01T07:26:45;95685.00;;;26.62
34310;BMP280;61664;48.112;11.662;2022-08-01T07:29:24;95688.06;;;26.66
34310;BMP280;61664;48.112;11.662;2022-08-01T07:31:57;95685.22;;;26.74
34310;BMP280;61664;48.112;11.662;2022-08-01T07:34:25;95691.78;;;26.78
34310;BMP280;61664;48.112;11.662;2022-08-01T07:36:53;95673.25;;;26.69
34310;BMP280;61664;48.112;11.662;2022-08-01T07:39:20;95680.00;;;26.85
34310;BMP280;61664;48.112;11.662;2022-08-01T07:41:47;95685.97;;;26.92
34310;BMP280;61664;48.112;11.662;2022-08-01T07:44:34;95677.50;;;26.97
34310;BMP280;61664;48.112;11.662;2022-08-01T07:47:01;95682.88;;;27.05
34310;BMP280;61664;48.112;11.662;2022-08-01T07:49:28;95695.78;;;27.12
34310;BMP280;61664;48.112;11.662;2022-08-01T07:51:55;95688.03;;;27.18
34310;BMP280;61664;48.112;11.662;2022-08-01T07:54:32;95685.41;;;27.20
34310;BMP280;61664;48.112;11.662;2022-08-01T07:57:02;95687.06;;;27.32
34310;BMP280;61664;48.112;11.662;2022-08-01T07:59:30;95690.19;;;27.46
34310;BMP280;61664;48.112;11.662;2022-08-01T08:01:57;95689.78;;;27.50
34310;BMP280;61664;48.112;11.662;2022-08-01T08:04:25;95697.13;;;27.57
34310;BMP280;61664;48.112;11.662;2022-08-01T08:06:53;95692.25;;;27.55
34310;BMP280;61664;48.112;11.662;2022-08-01T08:09:20;95691.13;;;27.58
34310;BMP280;61664;48.112;11.662;2022-08-01T08:11:47;95686.19;;;27.66
34310;BMP280;61664;48.112;11.662;2022-08-01T08:14:18;95695.63;;;27.73
34310;BMP280;61664;48.112;11.662;2022-08-01T08:16:45;95675.56;;;27.70
34310;BMP280;61664;48.112;11.662;2022-08-01T08:19:12;95683.09;;;27.79
34310;BMP280;61664;48.112;11.662;2022-08-01T08:21:40;95684.81;;;27.85
34310;BMP280;61664;48.112;11.662;2022-08-01T08:24:09;95687.59;;;27.94
34310;BMP280;61664;48.112;11.662;2022-08-01T08:26:56;95684.28;;;27.96
34310;BMP280;61664;48.112;11.662;2022-08-01T08:29:25;95688.94;;;28.12
34310;BMP280;61664;48.112;11.662;2022-08-01T08:31:54;95679.13;;;28.19
34310;BMP280;61664;48.112;11.662;2022-08-01T08:34:23;95685.97;;;28.37
34310;BMP280;61664;48.112;11.662;2022-08-01T08:36:51;95681.59;;;28.73
34310;BMP280;61664;48.112;11.662;2022-08-01T08:39:19;95685.38;;;29.46
34310;BMP280;61664;48.112;11.662;2022-08-01T08:41:47;95682.03;;;30.42
34310;BMP280;61664;48.112;11.662;2022-08-01T08:44:16;95673.00;;;31.42
34310;BMP280;61664;48.112;11.662;2022-08-01T08:46:48;95684.34;;;32.43
34310;BMP280;61664;48.112;11.662;2022-08-01T08:49:20;95684.28;;;33.19
34310;BMP280;61664;48.112;11.662;2022-08-01T08:51:51;95677.22;;;33.57
34310;BMP280;61664;48.112;11.662;2022-08-01T08:54:22;95684.25;;;33.87
34310;BMP280;61664;48.112;11.662;2022-08-01T08:57:00;95677.78;;;34.55
34310;BMP280;61664;48.112;11.662;2022-08-01T08:59:28;95677.19;;;35.35
34310;BMP280;61664;48.112;11.662;2022-08-01T09:01:56;95680.47;;;35.98
34310;BMP280;61664;48.112;11.662;2022-08-01T09:04:25;95682.00;;;36.54
34310;BMP280;61664;48.112;11.662;2022-08-01T09:06:54;95673.16;;;36.79
34310;BMP280;61664;48.112;11.662;2022-08-01T09:09:22;95672.13;;;37.08
34310;BMP280;61664;48.112;11.662;2022-08-01T09:11:49;95665.44;;;37.78
34310;BMP280;61664;48.112;11.662;2022-08-01T09:14:25;95675.03;;;37.95
34310;BMP280;61664;48.112;11.662;2022-08-01T09:17:05;95683.28;;;38.36
34310;BMP280;61664;48.112;11.662;2022-08-01T09:19:44;95683.69;;;39.00
34310;BMP280;61664;48.112;11.662;2022-08-01T09:22:18;95682.16;;;39.20
34310;BMP280;61664;48.112;11.662;2022-08-01T09:25:17;95683.88;;;39.06
34310;BMP280;61664;48.112;11.662;2022-08-01T09:27:44;95689.84;;;38.94
34310;BMP280;61664;48.112;11.662;2022-08-01T09:30:15;95680.47;;;38.83
34310;BMP280;61664;48.112;11.662;2022-08-01T09:33:00;95694.56;;;38.64
34310;BMP280;61664;48.112;11.662;2022-08-01T09:35:37;95695.19;;;38.38
34310;BMP280;61664;48.112;11.662;2022-08-01T09:38:21;95674.03;;;38.08
34310;BMP280;61664;48.112;11.662;2022-08-01T09:40:54;95686.78;;;38.13
34310;BMP280;61664;48.112;11.662;2022-08-01T09:43:27;95681.44;;;38.68
34310;BMP280;61664;48.112;11.662;2022-08-01T09:45:55;95685.06;;;38.98
34310;BMP280;61664;48.112;11.662;2022-08-01T09:48:24;95679.25;;;39.16
34310;BMP280;61664;48.112;11.662;2022-08-01T09:50:57;95678.22;;;39.57
34310;BMP280;61664;48.112;11.662;2022-08-01T09:53:46;95673.09;;;40.07
34310;BMP280;61664;48.112;11.662;2022-08-01T09:56:20;95665.25;;;40.31
34310;BMP280;61664;48.112;11.662;2022-08-01T09:58:56;95666.66;;;40.32
34310;BMP280;61664;48.112;11.662;2022-08-01T10:06:40;95667.25;;;40.60
34310;BMP280;61664;48.112;11.662;2022-08-01T10:09:12;95664.41;;;40.58
34310;BMP280;61664;48.112;11.662;2022-08-01T10:11:42;95661.78;;;40.68
34310;BMP280;61664;48.112;11.662;2022-08-01T10:14:11;95658.47;;;40.78
34310;BMP280;61664;48.112;11.662;2022-08-01T10:16:44;95658.81;;;40.96
34310;BMP280;61664;48.112;11.662;2022-08-01T10:19:23;95658.13;;;40.96
34310;BMP280;61664;48.112;11.662;2022-08-01T10:21:53;95649.63;;;40.54
34310;BMP280;61664;48.112;11.662;2022-08-01T10:24:29;95655.78;;;40.14
34310;BMP280;61664;48.112;11.662;2022-08-01T10:27:03;95658.00;;;40.54
34310;BMP280;61664;48.112;11.662;2022-08-01T10:29:57;95646.53;;;40.40
34310;BMP280;61664;48.112;11.662;2022-08-01T10:32:46;95656.81;;;40.63
34310;BMP280;61664;48.112;11.662;2022-08-01T10:35:17;95646.88;;;40.94
34310;BMP280;61664;48.112;11.662;2022-08-01T10:38:04;95639.69;;;41.24
34310;BMP280;61664;48.112;11.662;2022-08-01T10:40:41;95647.78;;;41.46
34310;BMP280;61664;48.112;11.662;2022-08-01T10:43:13;95640.00;;;40.63
34310;BMP280;61664;48.112;11.662;2022-08-01T10:45:49;95650.41;;;40.58
34310;BMP280;61664;48.112;11.662;2022-08-01T10:48:33;95642.53;;;40.87
34310;BMP280;61664;48.112;11.662;2022-08-01T10:51:06;95654.44;;;40.87
34310;BMP280;61664;48.112;11.662;2022-08-01T10:53:54;95630.06;;;41.33
34310;BMP280;61664;48.112;11.662;2022-08-01T10:56:23;95630.34;;;41.99
34310;BMP280;61664;48.112;11.662;2022-08-01T10:59:02;95638.22;;;42.13
34310;BMP280;61664;48.112;11.662;2022-08-01T11:01:34;95630.78;;;41.82
34310;BMP280;61664;48.112;11.662;2022-08-01T11:04:10;95629.06;;;42.09
34310;BMP280;61664;48.112;11.662;2022-08-01T11:07:06;95627.38;;;41.42
34310;BMP280;61664;48.112;11.662;2022-08-01T11:09:47;95627.88;;;41.76
34310;BMP280;61664;48.112;11.662;2022-08-01T11:12:18;95622.56;;;41.96
34310;BMP280;61664;48.112;11.662;2022-08-01T11:17:44;95620.22;;;40.55
34310;BMP280;61664;48.112;11.662;2022-08-01T11:20:16;95622.47;;;39.95
34310;BMP280;61664;48.112;11.662;2022-08-01T11:28:27;95610.91;;;37.51
34310;BMP280;61664;48.112;11.662;2022-08-01T11:39:10;95599.19;;;35.82
34310;BMP280;61664;48.112;11.662;2022-08-01T11:41:41;95593.88;;;35.19
34310;BMP280;61664;48.112;11.662;2022-08-01T11:44:17;95616.03;;;34.86
34310;BMP280;61664;48.112;11.662;2022-08-01T11:49:47;95613.84;;;34.37
34310;BMP280;61664;48.112;11.662;2022-08-01T11:52:28;95603.50;;;34.09
34310;BMP280;61664;48.112;11.662;2022-08-01T11:55:08;95606.09;;;34.04
34310;BMP280;61664;48.112;11.662;2022-08-01T11:57:42;95593.50;;;33.88
34310;BMP280;61664;48.112;11.662;2022-08-01T12:00:17;95605.84;;;33.71
34310;BMP280;61664;48.112;11.662;2022-08-01T12:02:47;95615.00;;;33.74
34310;BMP280;61664;48.112;11.662;2022-08-01T12:05:26;95598.50;;;33.62
34310;BMP280;61664;48.112;11.662;2022-08-01T12:07:54;95605.16;;;33.71
34310;BMP280;61664;48.112;11.662;2022-08-01T12:10:26;95606.81;;;33.91
34310;BMP280;61664;48.112;11.662;2022-08-01T12:12:59;95607.09;;;34.11
34310;BMP280;61664;48.112;11.662;2022-08-01T12:15:33;95583.31;;;34.06
34310;BMP280;61664;48.112;11.662;2022-08-01T12:18:04;95594.75;;;34.14
34310;BMP280;61664;48.112;11.662;2022-08-01T12:20:33;95593.81;;;34.39
34310;BMP280;61664;48.112;11.662;2022-08-01T12:23:07;95593.19;;;34.72
34310;BMP280;61664;48.112;11.662;2022-08-01T12:25:36;95588.25;;;35.01
34310;BMP280;61664;48.112;11.662;2022-08-01T12:28:06;95567.50;;;34.87
34310;BMP280;61664;48.112;11.662;2022-08-01T12:30:35;95566.25;;;34.90
34310;BMP280;61664;48.112;11.662;2022-08-01T12:33:08;95577.78;;;35.00
34310;BMP280;61664;48.112;11.662;2022-08-01T12:35:37;95579.03;;;34.97
34310;BMP280;61664;48.112;11.662;2022-08-01T12:38:15;95582.25;;;35.07
34310;BMP280;61664;48.112;11.662;2022-08-01T12:40:46;95560.97;;;35.29
34310;BMP280;61664;48.112;11.662;2022-08-01T12:43:21;95564.09;;;35.37
34310;BMP280;61664;48.112;11.662;2022-08-01T12:45:58;95545.06;;;35.14
34310;BMP280;61664;48.112;11.662;2022-08-01T12:48:30;95564.59;;;35.16
34310;BMP280;61664;48.112;11.662;2022-08-01T12:50:59;95567.72;;;35.08
34310;BMP280;61664;48.112;11.662;2022-08-01T12:53:28;95556.53;;;35.06
34310;BMP280;61664;48.112;11.662;2022-08-01T12:56:09;95563.38;;;35.21
34310;BMP280;61664;48.112;11.662;2022-08-01T12:58:39;95559.03;;;35.16
34310;BMP280;61664;48.112;11.662;2022-08-01T13:01:09;95554.13;;;35.15
34310;BMP280;61664;48.112;11.662;2022-08-01T13:03:37;95556.06;;;35.12
34310;BMP280;61664;48.112;11.662;2022-08-01T13:06:15;95551.97;;;35.13
34310;BMP280;61664;48.112;11.662;2022-08-01T13:08:44;95534.16;;;35.36
34310;BMP280;61664;48.112;11.662;2022-08-01T13:11:14;95545.84;;;35.68
34310;BMP280;61664;48.112;11.662;2022-08-01T13:13:51;95539.91;;;35.75
34310;BMP280;61664;48.112;11.662;2022-08-01T13:16:22;95553.31;;;35.81
34310;BMP280;61664;48.112;11.662;2022-08-01T13:19:05;95543.91;;;35.72
34310;BMP280;61664;48.112;11.662;2022-08-01T13:21:33;95544.41;;;35.49
34310;BMP280;61664;48.112;11.662;2022-08-01T13:24:25;95551.19;;;35.28
34310;BMP280;61664;48.112;11.662;2022-08-01T13:27:01;95550.38;;;35.08
34310;BMP280;61664;48.112;11.662;2022-08-01T13:32:18;95548.09;;;34.55
34310;BMP280;61664;48.112;11.662;2022-08-01T13:35:08;95555.59;;;34.37
34310;BMP280;61664;48.112;11.662;2022-08-01T13:37:36;95552.00;;;34.19
34310;BMP280;61664;48.112;11.662;2022-08-01T13:40:06;95553.22;;;34.00
34310;BMP280;61664;48.112;11.662;2022-08-01T13:42:34;95558.44;;;33.79
34310;BMP280;61664;48.112;11.662;2022-08-01T13:45:02;95549.78;;;33.57
34310;BMP280;61664;48.112;11.662;2022-08-01T13:47:40;95552.06;;;33.47
34310;BMP280;61664;48.112;11.662;2022-08-01T13:50:26;95553.78;;;33.40
34310;BMP280;61664;48.112;11.662;2022-08-01T13:52:54;95549.91;;;33.45
34310;BMP280;61664;48.112;11.662;2022-08-01T13:55:21;95557.56;;;33.61
34310;BMP280;61664;48.112;11.662;2022-08-01T13:57:47;95566.94;;;33.83
34310;BMP280;61664;48.112;11.662;2022-08-01T14:00:15;95558.22;;;33.88
34310;BMP280;61664;48.112;11.662;2022-08-01T14:02:42;95561.38;;;33.83
34310;BMP280;61664;48.112;11.662;2022-08-01T14:05:09;95563.97;;;33.79
34310;BMP280;61664;48.112;11.662;2022-08-01T14:07:36;95559.91;;;33.66
34310;BMP280;61664;48.112;11.662;2022-08-01T14:10:04;95563.94;;;33.49
34310;BMP280;61664;48.112;11.662;2022-08-01T14:12:47;95554.25;;;33.35
34310;BMP280;61664;48.112;11.662;2022-08-01T14:15:14;95549.13;;;33.29
34310;BMP280;61664;48.112;11.662;2022-08-01T14:18:02;95568.50;;;33.29
34310;BMP280;61664;48.112;11.662;2022-08-01T14:20:32;95569.22;;;33.16
34310;BMP280;61664;48.112;11.662;2022-08-01T14:22:59;95578.53;;;33.09
34310;BMP280;61664;48.112;11.662;2022-08-01T14:25:26;95573.59;;;32.94
34310;BMP280;61664;48.112;11.662;2022-08-01T14:28:13;95572.97;;;32.82
34310;BMP280;61664;48.112;11.662;2022-08-01T14:30:40;95584.84;;;32.71
34310;BMP280;61664;48.112;11.662;2022-08-01T14:33:11;95581.84;;;32.53
34310;BMP280;61664;48.112;11.662;2022-08-01T14:35:39;95576.09;;;32.35
34310;BMP280;61664;48.112;11.662;2022-08-01T14:38:26;95568.84;;;32.17
34310;BMP280;61664;48.112;11.662;2022-08-01T14:40:59;95584.44;;;32.12
34310;BMP280;61664;48.112;11.662;2022-08-01T14:43:27;95588.34;;;32.07
34310;BMP280;61664;48.112;11.662;2022-08-01T14:46:00;95571.38;;;31.87
34310;BMP280;61664;48.112;11.662;2022-08-01T14:48:28;95582.66;;;31.80
34310;BMP280;61664;48.112;11.662;2022-08-01T14:50:57;95582.31;;;31.74
34310;BMP280;61664;48.112;11.662;2022-08-01T14:53:24;95573.34;;;31.62
34310;BMP280;61664;48.112;11.662;2022-08-01T14:55:51;95581.53;;;31.60
34310;BMP280;61664;48.112;11.662;2022-08-01T14:58:18;95582.72;;;31.57
34310;BMP280;61664;48.112;11.662;2022-08-01T15:00:45;95579.97;;;31.45